createdAt,value
2022-07-29T00:01:46.835Z,17.43
2022-07-29T00:04:16.862Z,17.38
2022-07-29T00:06:46.700Z,17.35
2022-07-29T00:09:15.927Z,17.34
2022-07-29T00:11:45.467Z,17.33
2022-07-29T00:14:14.990Z,17.25
2022-07-29T00:16:44.569Z,17.26
2022-07-29T00:19:13.946Z,17.26
2022-07-29T00:21:43.177Z,17.25
2022-07-29T00:24:13.170Z,17.21
2022-07-29T00:26:42.604Z,17.19
2022-07-29T00:29:33.740Z,17.16
2022-07-29T00:32:01.673Z,17.11
2022-07-29T00:34:43.539Z,17.02
2022-07-29T00:37:13.057Z,17.00
2022-07-29T00:39:42.292Z,17.00
2022-07-29T00:42:11.773Z,16.98
2022-07-29T00:44:45.157Z,16.91
2022-07-29T00:47:15.043Z,16.89
2022-07-29T00:49:45.246Z,16.89
2022-07-29T00:52:16.932Z,16.94
2022-07-29T00:54:46.866Z,16.97
2022-07-29T00:57:16.906Z,16.94
2022-07-29T00:59:46.135Z,16.97
2022-07-29T01:02:15.374Z,16.95
2022-07-29T01:04:44.929Z,16.95
2022-07-29T01:07:14.346Z,16.94
2022-07-29T01:09:46.608Z,16.93
2022-07-29T01:12:19.959Z,16.94
2022-07-29T01:14:50.358Z,16.94
2022-07-29T01:17:28.177Z,16.89
2022-07-29T01:20:16.287Z,16.88
2022-07-29T01:23:00.711Z,16.95
2022-07-29T01:25:46.180Z,17.01
2022-07-29T01:28:39.277Z,17.03
2022-07-29T01:31:11.249Z,17.04
2022-07-29T01:33:52.320Z,17.02
2022-07-29T01:36:27.670Z,17.02
2022-07-29T01:39:20.927Z,17.04
2022-07-29T01:42:17.061Z,17.07
2022-07-29T01:45:19.473Z,17.08
2022-07-29T01:47:52.324Z,17.06
2022-07-29T01:50:23.046Z,17.05
2022-07-29T01:53:00.957Z,17.05
2022-07-29T01:55:35.115Z,17.04
2022-07-29T01:58:04.925Z,17.04
2022-07-29T02:00:35.214Z,17.05
2022-07-29T02:03:06.720Z,17.06
2022-07-29T02:05:36.866Z,17.06
2022-07-29T02:08:09.493Z,17.06
2022-07-29T02:10:40.474Z,17.06
2022-07-29T02:13:10.674Z,17.06
2022-07-29T02:15:40.497Z,17.09
2022-07-29T02:18:13.688Z,17.08
2022-07-29T02:20:43.769Z,17.07
2022-07-29T02:23:14.273Z,17.05
2022-07-29T02:25:45.123Z,17.02
2022-07-29T02:28:15.603Z,17.02
2022-07-29T02:30:46.005Z,17.00
2022-07-29T02:33:17.346Z,16.98
2022-07-29T02:35:50.314Z,17.00
2022-07-29T02:38:33.000Z,17.02
2022-07-29T02:41:04.235Z,17.02
2022-07-29T02:43:34.384Z,17.02
2022-07-29T02:46:04.571Z,16.99
2022-07-29T02:48:45.675Z,17.00
2022-07-29T02:51:43.708Z,16.97
2022-07-29T02:54:11.727Z,16.99
2022-07-29T02:56:42.402Z,16.98
2022-07-29T02:59:14.360Z,16.98
2022-07-29T03:01:46.729Z,16.97
2022-07-29T03:04:17.363Z,16.97
2022-07-29T03:06:47.042Z,16.99
2022-07-29T03:09:17.131Z,17.04
2022-07-29T03:11:50.584Z,16.98
2022-07-29T03:14:24.093Z,16.95
2022-07-29T03:16:53.887Z,16.98
2022-07-29T03:19:23.890Z,16.97
2022-07-29T03:21:53.257Z,16.98
2022-07-29T03:24:37.244Z,16.99
2022-07-29T03:27:07.613Z,16.99
2022-07-29T03:29:37.132Z,16.97
2022-07-29T03:32:09.058Z,16.99
2022-07-29T03:34:39.645Z,16.96
2022-07-29T03:37:09.898Z,17.01
2022-07-29T03:39:43.290Z,17.05
2022-07-29T03:42:15.076Z,17.04
2022-07-29T03:44:46.001Z,17.05
2022-07-29T03:47:17.411Z,17.08
2022-07-29T03:49:50.446Z,17.08
2022-07-29T03:52:20.310Z,17.04
2022-07-29T03:54:50.083Z,17.08
2022-07-29T03:57:20.098Z,17.13
2022-07-29T03:59:49.577Z,17.15
2022-07-29T04:02:22.415Z,17.17
2022-07-29T04:04:54.064Z,17.19
2022-07-29T04:07:23.343Z,17.17
2022-07-29T04:09:52.602Z,17.21
2022-07-29T04:12:22.080Z,17.25
2022-07-29T04:14:51.537Z,17.27
2022-07-29T04:17:20.795Z,17.23
2022-07-29T04:19:50.076Z,17.22
2022-07-29T04:22:19.278Z,17.24
2022-07-29T04:24:48.569Z,17.27
2022-07-29T04:27:17.819Z,17.36
2022-07-29T04:29:56.302Z,17.35
2022-07-29T04:32:27.265Z,17.35
2022-07-29T04:34:56.615Z,17.33
2022-07-29T04:37:26.607Z,17.38
2022-07-29T04:39:55.885Z,17.47
2022-07-29T04:42:26.732Z,17.52
2022-07-29T04:44:57.155Z,17.57
2022-07-29T04:47:26.361Z,17.66
2022-07-29T04:49:56.294Z,17.75
2022-07-29T04:52:26.130Z,17.82
2022-07-29T04:54:55.362Z,17.84
2022-07-29T04:57:24.683Z,17.86
2022-07-29T04:59:53.987Z,17.88
2022-07-29T05:02:23.283Z,17.98
2022-07-29T05:04:52.630Z,18.09
2022-07-29T05:07:21.899Z,18.17
2022-07-29T05:09:51.179Z,18.23
2022-07-29T05:12:20.389Z,18.30
2022-07-29T05:14:49.659Z,18.33
2022-07-29T05:17:18.941Z,18.37
2022-07-29T05:19:48.436Z,18.45
2022-07-29T05:22:17.649Z,18.47
2022-07-29T05:24:46.886Z,18.54
2022-07-29T05:27:16.425Z,18.59
2022-07-29T05:29:45.898Z,18.60
2022-07-29T05:32:16.345Z,18.64
2022-07-29T05:34:51.063Z,18.65
2022-07-29T05:37:20.858Z,18.72
2022-07-29T05:39:56.741Z,18.81
2022-07-29T05:42:30.271Z,18.88
2022-07-29T05:44:59.556Z,18.93
2022-07-29T05:47:29.262Z,18.99
2022-07-29T05:49:58.522Z,19.03
2022-07-29T05:52:27.780Z,19.09
2022-07-29T05:54:57.414Z,19.13
2022-07-29T05:57:27.947Z,19.19
2022-07-29T05:59:57.202Z,19.23
2022-07-29T06:02:26.465Z,19.29
2022-07-29T06:04:55.951Z,19.32
2022-07-29T06:07:25.430Z,19.39
2022-07-29T06:09:54.678Z,19.45
2022-07-29T06:12:24.535Z,19.51
2022-07-29T06:14:54.315Z,19.55
2022-07-29T06:17:23.714Z,19.61
2022-07-29T06:19:53.145Z,19.69
2022-07-29T06:22:22.402Z,19.73
2022-07-29T06:24:51.638Z,19.79
2022-07-29T06:27:20.886Z,19.80
2022-07-29T06:29:50.164Z,19.80
2022-07-29T06:32:20.194Z,19.82
2022-07-29T06:34:52.196Z,19.83
2022-07-29T06:37:23.183Z,19.84
2022-07-29T06:40:14.844Z,19.87
2022-07-29T06:42:47.644Z,19.95
2022-07-29T06:45:17.211Z,19.98
2022-07-29T06:47:46.448Z,20.04
2022-07-29T06:50:16.168Z,20.08
2022-07-29T06:52:45.485Z,20.09
2022-07-29T06:55:24.983Z,20.13
2022-07-29T06:57:55.059Z,20.20
2022-07-29T07:00:24.442Z,20.23
2022-07-29T07:02:53.745Z,20.26
2022-07-29T07:05:23.018Z,20.29
2022-07-29T07:07:52.222Z,20.35
2022-07-29T07:10:22.031Z,20.31
2022-07-29T07:12:53.345Z,20.30
2022-07-29T07:15:24.337Z,20.36
2022-07-29T07:18:10.007Z,20.46
2022-07-29T07:20:40.398Z,20.50
2022-07-29T07:23:09.690Z,20.55
2022-07-29T07:25:38.906Z,20.57
2022-07-29T07:28:08.475Z,20.58
2022-07-29T07:30:37.705Z,20.56
2022-07-29T07:33:07.055Z,20.63
2022-07-29T07:35:36.505Z,20.69
2022-07-29T07:38:06.982Z,20.75
2022-07-29T07:40:36.667Z,20.81
2022-07-29T07:43:06.038Z,20.88
2022-07-29T07:45:38.366Z,20.99
2022-07-29T07:48:11.182Z,21.10
2022-07-29T07:50:40.843Z,21.20
2022-07-29T07:53:10.322Z,21.30
2022-07-29T07:56:09.407Z,21.39
2022-07-29T07:58:36.404Z,21.47
2022-07-29T08:01:06.068Z,21.55
2022-07-29T08:03:36.603Z,21.62
2022-07-29T08:06:07.498Z,21.71
2022-07-29T08:08:37.189Z,21.82
2022-07-29T08:11:09.710Z,21.83
2022-07-29T08:13:39.812Z,21.92
2022-07-29T08:16:16.444Z,22.03
2022-07-29T08:18:47.164Z,22.08
2022-07-29T08:21:17.278Z,22.17
2022-07-29T08:24:00.803Z,22.29
2022-07-29T08:26:32.193Z,22.58
2022-07-29T08:29:01.591Z,22.97
2022-07-29T08:31:31.088Z,23.34
2022-07-29T08:34:00.893Z,23.79
2022-07-29T08:36:30.233Z,24.22
2022-07-29T08:38:59.756Z,24.56
2022-07-29T08:41:29.747Z,24.90
2022-07-29T08:43:59.011Z,25.22
2022-07-29T08:46:29.240Z,25.52
2022-07-29T08:48:59.116Z,25.61
2022-07-29T08:51:29.321Z,25.82
2022-07-29T08:53:58.688Z,25.78
2022-07-29T08:56:28.047Z,25.86
2022-07-29T08:58:57.746Z,26.11
2022-07-29T09:01:36.499Z,26.33
2022-07-29T09:04:15.100Z,26.14
2022-07-29T09:06:49.538Z,26.14
2022-07-29T09:09:18.929Z,26.07
2022-07-29T09:11:48.146Z,26.01
2022-07-29T09:14:17.584Z,26.04
2022-07-29T09:16:58.765Z,26.08
2022-07-29T09:19:35.893Z,26.27
2022-07-29T09:22:07.465Z,26.47
2022-07-29T09:24:44.765Z,26.40
2022-07-29T09:27:23.196Z,26.21
2022-07-29T09:30:25.676Z,26.25
2022-07-29T09:33:03.822Z,26.52
2022-07-29T09:35:33.816Z,26.62
2022-07-29T09:38:14.605Z,26.58
2022-07-29T09:40:44.089Z,26.67
2022-07-29T09:43:14.945Z,26.69
2022-07-29T09:45:44.530Z,26.72
2022-07-29T09:48:22.078Z,26.82
2022-07-29T09:50:51.431Z,26.74
2022-07-29T09:53:34.626Z,26.82
2022-07-29T09:56:04.442Z,26.83
2022-07-29T09:58:34.698Z,26.85
2022-07-29T10:01:04.414Z,26.88
2022-07-29T10:03:33.770Z,26.77
2022-07-29T10:06:09.948Z,26.71
2022-07-29T10:08:39.412Z,26.81
2022-07-29T10:11:18.821Z,26.92
2022-07-29T10:13:50.002Z,27.12
2022-07-29T10:16:20.091Z,27.21
2022-07-29T10:18:49.965Z,27.16
2022-07-29T10:21:34.765Z,27.19
2022-07-29T10:24:06.030Z,27.26
2022-07-29T10:26:36.337Z,27.36
2022-07-29T10:29:05.883Z,27.37
2022-07-29T10:31:49.901Z,27.46
2022-07-29T10:34:36.194Z,27.69
2022-07-29T10:37:22.245Z,27.79
2022-07-29T10:40:26.089Z,27.88
2022-07-29T10:42:58.015Z,28.05
2022-07-29T10:45:30.444Z,28.15
2022-07-29T10:48:08.533Z,28.31
2022-07-29T10:50:57.890Z,28.31
2022-07-29T10:53:27.523Z,28.18
2022-07-29T10:56:06.523Z,28.12
2022-07-29T10:58:35.916Z,27.95
2022-07-29T11:01:37.054Z,27.98
2022-07-29T11:04:08.182Z,28.05
2022-07-29T11:10:15.399Z,28.07
2022-07-29T11:12:46.938Z,28.05
2022-07-29T11:15:24.939Z,28.04
2022-07-29T11:17:59.400Z,28.03
2022-07-29T11:20:50.944Z,27.99
2022-07-29T11:23:34.825Z,27.84
2022-07-29T11:26:23.105Z,27.78
2022-07-29T11:29:06.980Z,27.75
2022-07-29T11:31:52.488Z,27.72
2022-07-29T11:34:29.721Z,27.77
2022-07-29T11:37:10.965Z,27.75
2022-07-29T11:39:47.698Z,27.70
2022-07-29T11:42:34.331Z,27.68
2022-07-29T11:50:53.514Z,27.68
2022-07-29T11:53:22.904Z,27.64
2022-07-29T11:55:58.638Z,27.57
2022-07-29T11:58:28.115Z,27.48
2022-07-29T12:00:57.456Z,27.51
2022-07-29T12:03:33.254Z,27.52
2022-07-29T12:06:07.927Z,27.47
2022-07-29T12:07:02.021Z,27.73
2022-07-29T12:08:44.495Z,27.38
2022-07-29T12:11:22.959Z,27.42
2022-07-29T12:13:54.693Z,27.53
2022-07-29T12:16:26.068Z,27.64
2022-07-29T12:19:03.986Z,27.70
2022-07-29T12:21:56.435Z,27.71
2022-07-29T12:24:27.419Z,27.75
2022-07-29T12:26:57.516Z,27.71
2022-07-29T12:29:34.879Z,27.70
2022-07-29T12:32:14.346Z,27.84
2022-07-29T12:34:48.626Z,27.92
2022-07-29T12:37:18.024Z,27.86
2022-07-29T12:39:47.378Z,27.82
2022-07-29T12:42:19.319Z,27.88
2022-07-29T12:44:54.463Z,27.96
2022-07-29T12:47:24.330Z,27.89
2022-07-29T12:49:54.481Z,27.89
2022-07-29T12:52:33.858Z,27.88
2022-07-29T12:55:03.520Z,27.95
2022-07-29T12:57:33.224Z,27.94
2022-07-29T13:00:12.051Z,27.95
2022-07-29T13:02:42.692Z,27.99
2022-07-29T13:05:13.799Z,28.05
2022-07-29T13:07:55.192Z,28.11
2022-07-29T13:10:27.051Z,28.12
2022-07-29T13:13:17.069Z,28.01
2022-07-29T13:15:48.781Z,27.92
2022-07-29T13:18:34.651Z,27.71
2022-07-29T13:21:18.919Z,27.61
2022-07-29T13:23:48.427Z,27.51
2022-07-29T13:26:20.691Z,27.50
2022-07-29T13:28:49.958Z,27.43
2022-07-29T13:31:19.312Z,27.42
2022-07-29T13:33:49.026Z,27.33
2022-07-29T13:36:18.619Z,27.30
2022-07-29T13:38:47.847Z,27.21
2022-07-29T13:41:19.906Z,27.16
2022-07-29T13:43:50.119Z,27.21
2022-07-29T13:46:19.558Z,27.22
2022-07-29T13:48:48.863Z,27.24
2022-07-29T13:51:18.360Z,27.16
2022-07-29T13:53:47.583Z,27.14
2022-07-29T13:56:16.953Z,27.10
2022-07-29T13:58:46.158Z,27.08
2022-07-29T14:01:15.391Z,26.97
2022-07-29T14:03:45.754Z,26.94
2022-07-29T14:06:15.203Z,26.78
2022-07-29T14:08:44.847Z,26.70
2022-07-29T14:11:14.070Z,26.66
2022-07-29T14:13:43.518Z,26.58
2022-07-29T14:16:12.796Z,26.48
2022-07-29T14:18:42.021Z,26.33
2022-07-29T14:21:11.327Z,26.16
2022-07-29T14:23:42.440Z,26.11
2022-07-29T14:26:15.878Z,25.99
2022-07-29T14:28:50.853Z,25.91
2022-07-29T14:31:20.146Z,25.94
2022-07-29T14:33:49.493Z,25.94
2022-07-29T14:36:18.789Z,25.89
2022-07-29T14:38:47.972Z,25.87
2022-07-29T14:41:17.219Z,25.85
2022-07-29T14:43:46.444Z,25.83
2022-07-29T14:46:16.031Z,25.79
2022-07-29T14:48:45.339Z,25.79
2022-07-29T14:51:14.584Z,25.77
2022-07-29T14:53:44.379Z,25.75
2022-07-29T14:56:35.599Z,25.52
2022-07-29T14:59:03.137Z,25.16
2022-07-29T15:01:33.169Z,24.91
2022-07-29T15:04:02.473Z,24.45
2022-07-29T15:06:31.877Z,24.00
2022-07-29T15:09:01.093Z,23.75
2022-07-29T15:11:30.308Z,23.42
2022-07-29T15:14:06.918Z,23.06
2022-07-29T15:16:36.613Z,22.67
2022-07-29T15:19:06.344Z,22.30
2022-07-29T15:21:35.825Z,22.06
2022-07-29T15:24:11.065Z,21.91
2022-07-29T15:26:40.340Z,21.75
2022-07-29T15:29:09.569Z,21.61
2022-07-29T15:31:39.133Z,21.59
2022-07-29T15:34:08.658Z,21.58
2022-07-29T15:36:53.894Z,21.53
2022-07-29T15:39:24.689Z,21.52
2022-07-29T15:41:54.143Z,21.46
2022-07-29T15:44:23.774Z,21.40
2022-07-29T15:47:08.347Z,21.42
2022-07-29T15:49:46.322Z,21.40
2022-07-29T15:52:18.424Z,21.34
2022-07-29T15:54:48.346Z,21.35
2022-07-29T15:57:17.733Z,21.26
2022-07-29T15:59:47.222Z,21.20
2022-07-29T16:02:16.455Z,21.29
2022-07-29T16:04:45.678Z,21.30
2022-07-29T16:07:15.093Z,21.36
2022-07-29T16:09:49.244Z,21.45
2022-07-29T16:12:20.192Z,21.50
2022-07-29T16:14:49.686Z,21.52
2022-07-29T16:17:19.048Z,21.54
2022-07-29T16:19:48.792Z,21.58
2022-07-29T16:22:18.012Z,21.64
2022-07-29T16:24:47.270Z,21.67
2022-07-29T16:27:16.479Z,21.75
2022-07-29T16:29:46.923Z,21.83
2022-07-29T16:32:16.169Z,21.88
2022-07-29T16:34:51.682Z,21.97
2022-07-29T16:37:20.943Z,21.99
2022-07-29T16:39:50.186Z,22.01
2022-07-29T16:42:36.896Z,22.09
2022-07-29T16:45:09.139Z,22.16
2022-07-29T16:47:38.799Z,22.24
2022-07-29T16:50:08.893Z,22.30
2022-07-29T16:52:38.497Z,22.32
2022-07-29T16:55:08.217Z,22.42
2022-07-29T16:57:37.461Z,22.51
2022-07-29T17:00:08.737Z,22.59
2022-07-29T17:02:38.842Z,22.66
2022-07-29T17:05:10.643Z,22.75
2022-07-29T17:07:39.894Z,22.75
2022-07-29T17:10:10.778Z,22.72
2022-07-29T17:12:41.065Z,22.69
2022-07-29T17:15:12.857Z,22.64
2022-07-29T17:17:54.863Z,22.68
2022-07-29T17:20:26.619Z,22.64
2022-07-29T17:22:56.068Z,22.59
2022-07-29T17:25:25.668Z,22.64
2022-07-29T17:28:00.488Z,22.52
2022-07-29T17:30:30.224Z,22.48
2022-07-29T17:32:59.491Z,22.52
2022-07-29T17:35:41.351Z,22.57
2022-07-29T17:38:10.626Z,22.53
2022-07-29T17:40:39.935Z,22.49
2022-07-29T17:43:09.398Z,22.45
2022-07-29T17:45:50.083Z,22.41
2022-07-29T17:48:21.226Z,22.37
2022-07-29T17:50:51.078Z,22.37
2022-07-29T17:53:20.402Z,22.39
2022-07-29T17:55:50.234Z,22.38
2022-07-29T17:58:19.578Z,22.45
2022-07-29T18:00:48.834Z,22.45
2022-07-29T18:03:18.229Z,22.41
2022-07-29T18:05:47.906Z,22.36
2022-07-29T18:08:17.164Z,22.25
2022-07-29T18:10:47.470Z,22.26
2022-07-29T18:13:16.815Z,22.30
2022-07-29T18:15:47.891Z,22.32
2022-07-29T18:18:18.471Z,22.30
2022-07-29T18:20:48.636Z,22.25
2022-07-29T18:23:17.988Z,22.21
2022-07-29T18:25:47.278Z,22.16
2022-07-29T18:28:16.522Z,22.12
2022-07-29T18:30:46.598Z,22.06
2022-07-29T18:33:22.098Z,22.09
2022-07-29T18:36:07.688Z,22.05
2022-07-29T18:38:40.549Z,22.04
2022-07-29T18:41:10.129Z,22.08
2022-07-29T18:43:39.382Z,22.13
2022-07-29T18:46:08.675Z,22.13
2022-07-29T18:48:38.081Z,22.11
2022-07-29T18:51:09.236Z,22.14
2022-07-29T18:53:39.069Z,22.16
2022-07-29T18:56:08.340Z,22.17
2022-07-29T18:58:38.916Z,22.16
2022-07-29T19:01:10.587Z,22.15
2022-07-29T19:03:41.634Z,22.14
2022-07-29T19:06:11.007Z,22.14
2022-07-29T19:08:40.256Z,22.12
2022-07-29T19:11:09.484Z,22.10
2022-07-29T19:13:39.044Z,22.08
2022-07-29T19:16:12.077Z,22.06
2022-07-29T19:18:41.531Z,21.98
2022-07-29T19:21:10.801Z,21.99
2022-07-29T19:24:02.451Z,21.96
2022-07-29T19:26:29.272Z,21.95
2022-07-29T19:28:58.507Z,21.83
2022-07-29T19:31:27.860Z,21.78
2022-07-29T19:33:57.208Z,21.80
2022-07-29T19:36:27.362Z,21.79
2022-07-29T19:38:56.597Z,21.77
2022-07-29T19:41:25.893Z,21.70
2022-07-29T19:43:55.367Z,21.62
2022-07-29T19:46:25.062Z,21.56
2022-07-29T19:48:54.764Z,21.51
2022-07-29T19:51:25.132Z,21.56
2022-07-29T19:53:54.455Z,21.58
2022-07-29T19:56:26.702Z,21.51
2022-07-29T19:58:57.652Z,21.59
2022-07-29T20:01:27.403Z,21.62
2022-07-29T20:03:56.708Z,21.68
2022-07-29T20:06:27.185Z,21.66
2022-07-29T20:08:58.711Z,21.68
2022-07-29T20:11:29.823Z,21.69
2022-07-29T20:13:59.153Z,21.68
2022-07-29T20:16:28.481Z,21.65
2022-07-29T20:18:57.758Z,21.62
2022-07-29T20:21:27.371Z,21.61
2022-07-29T20:24:00.507Z,21.47
2022-07-29T20:26:29.812Z,21.42
2022-07-29T20:28:59.447Z,21.45
2022-07-29T20:31:30.636Z,21.46
2022-07-29T20:34:00.055Z,21.46
2022-07-29T20:36:29.384Z,21.38
2022-07-29T20:38:59.999Z,21.42
2022-07-29T20:41:29.364Z,21.43
2022-07-29T20:43:58.810Z,21.43
2022-07-29T20:46:28.191Z,21.38
2022-07-29T20:48:57.606Z,21.38
2022-07-29T20:51:27.214Z,21.35
2022-07-29T20:53:56.521Z,21.26
2022-07-29T20:56:25.834Z,21.13
2022-07-29T20:58:55.281Z,21.07
2022-07-29T21:01:24.557Z,20.97
2022-07-29T21:03:53.846Z,20.93
2022-07-29T21:06:23.061Z,20.93
2022-07-29T21:08:52.342Z,20.95
2022-07-29T21:11:43.162Z,21.04
2022-07-29T21:14:17.768Z,21.02
2022-07-29T21:16:47.052Z,21.01
2022-07-29T21:19:16.301Z,21.06
2022-07-29T21:21:45.547Z,21.10
2022-07-29T21:24:14.777Z,21.07
2022-07-29T21:26:50.645Z,21.06
2022-07-29T21:29:26.201Z,21.09
2022-07-29T21:31:55.468Z,21.10
2022-07-29T21:34:24.712Z,21.14
2022-07-29T21:36:54.052Z,21.16
2022-07-29T21:39:23.439Z,21.16
2022-07-29T21:41:52.736Z,21.13
2022-07-29T21:44:22.187Z,21.11
2022-07-29T21:46:52.038Z,21.12
2022-07-29T21:49:21.335Z,21.09
2022-07-29T21:51:50.605Z,21.03
2022-07-29T21:54:20.129Z,21.02
2022-07-29T21:56:51.442Z,20.99
2022-07-29T21:59:20.901Z,20.95
2022-07-29T22:01:50.157Z,20.84
2022-07-29T22:04:19.444Z,20.69
2022-07-29T22:06:48.744Z,20.69
2022-07-29T22:09:17.988Z,20.69
2022-07-29T22:11:47.960Z,20.58
2022-07-29T22:14:18.587Z,20.43
2022-07-29T22:16:48.772Z,20.35
2022-07-29T22:19:18.329Z,20.34
2022-07-29T22:21:47.562Z,20.31
2022-07-29T22:24:16.788Z,20.27
2022-07-29T22:26:46.028Z,20.23
2022-07-29T22:29:17.686Z,20.26
2022-07-29T22:31:47.242Z,20.21
2022-07-29T22:34:16.541Z,20.10
2022-07-29T22:36:45.778Z,20.03
2022-07-29T22:39:15.629Z,19.97
2022-07-29T22:41:45.495Z,19.95
2022-07-29T22:44:14.715Z,19.94
2022-07-29T22:46:43.991Z,19.95
2022-07-29T22:49:13.326Z,19.83
2022-07-29T22:51:42.591Z,19.85
2022-07-29T22:54:11.939Z,19.80
2022-07-29T22:56:41.293Z,19.83
2022-07-29T22:59:10.776Z,19.75
2022-07-29T23:01:40.025Z,19.76
2022-07-29T23:04:09.774Z,19.69
2022-07-29T23:06:39.143Z,19.52
2022-07-29T23:09:08.436Z,19.36
2022-07-29T23:11:37.856Z,19.29
2022-07-29T23:14:07.154Z,19.28
2022-07-29T23:16:38.988Z,19.31
2022-07-29T23:19:08.706Z,19.25
2022-07-29T23:21:38.060Z,19.19
2022-07-29T23:24:07.454Z,19.17
2022-07-29T23:26:36.955Z,19.18
2022-07-29T23:29:06.372Z,19.23
2022-07-29T23:31:36.034Z,19.20
2022-07-29T23:34:11.334Z,19.14
2022-07-29T23:36:42.323Z,19.13
2022-07-29T23:39:13.343Z,19.15
2022-07-29T23:41:42.862Z,19.21
2022-07-29T23:44:12.077Z,19.20
2022-07-29T23:46:41.400Z,19.17
2022-07-29T23:49:10.726Z,19.02
2022-07-29T23:51:39.993Z,18.92
2022-07-29T23:54:09.224Z,18.84
2022-07-29T23:56:38.524Z,18.76
2022-07-29T23:59:07.766Z,18.66
